Time;durP1;ratioP1;P1;durP2;ratioP2;P2;SDS_P1;SDS_P2;PMS_P1;PMS_P2;Temp;Humidity;BMP_temperature;BMP_pressure;BME280_temperature;BME280_humidity;BME280_pressure;Samples;Min_cycle;Max_cycle;Signal;HPM_P1;HPM_P2
2022/03/08 00:00:30;;;;;;;19.40;9.60;;;;;;;10.22;45.75;102261.16;5092916;28;20831;-46
2022/03/08 00:02:57;;;;;;;17.20;8.93;;;;;;;10.21;45.56;102254.16;5081092;28;20028;-48
2022/03/08 00:05:26;;;;;;;20.20;8.38;;;;;;;10.15;45.72;102250.25;5090726;28;20025;-49
2022/03/08 00:07:53;;;;;;;14.27;8.18;;;;;;;9.96;46.52;102246.81;5088580;28;20066;-47
2022/03/08 00:10:19;;;;;;;16.02;8.60;;;;;;;10.08;45.93;102244.69;5082733;28;20045;-47
2022/03/08 00:12:47;;;;;;;14.38;7.78;;;;;;;9.94;46.60;102242.63;5093837;28;20036;-48
2022/03/08 00:15:14;;;;;;;16.13;8.32;;;;;;;9.96;47.74;102249.47;5082803;28;20108;-47
2022/03/08 00:17:40;;;;;;;17.42;8.63;;;;;;;9.91;46.50;102254.47;5088195;28;20037;-50
2022/03/08 00:20:08;;;;;;;17.95;8.23;;;;;;;9.84;46.94;102251.56;5079615;28;20037;-51
2022/03/08 00:22:35;;;;;;;14.52;7.38;;;;;;;10.06;46.40;102261.91;5075886;28;20043;-48
2022/03/08 00:25:01;;;;;;;14.02;7.82;;;;;;;9.84;46.58;102254.22;5077314;28;20040;-48
2022/03/08 00:27:28;;;;;;;13.57;7.85;;;;;;;9.76;46.42;102249.66;5076709;28;20028;-50
2022/03/08 00:29:54;;;;;;;14.18;7.82;;;;;;;10.03;45.75;102250.53;5076663;28;20120;-47
2022/03/08 00:32:20;;;;;;;15.03;7.37;;;;;;;9.93;45.70;102247.13;5076763;28;20048;-50
2022/03/08 00:34:46;;;;;;;13.73;7.53;;;;;;;9.93;45.26;102251.63;5076460;28;20048;-47
2022/03/08 00:37:11;;;;;;;15.03;7.50;;;;;;;10.01;45.33;102257.03;5075690;28;20041;-52
2022/03/08 00:39:37;;;;;;;13.93;7.90;;;;;;;10.01;45.10;102257.84;5076027;28;20048;-49
2022/03/08 00:42:02;;;;;;;15.33;8.13;;;;;;;10.02;45.07;102261.38;5075759;28;20040;-50
2022/03/08 00:44:29;;;;;;;14.38;7.70;;;;;;;9.95;45.10;102265.69;5075599;28;20044;-48
2022/03/08 00:46:55;;;;;;;12.52;5.45;;;;;;;9.99;44.93;102259.03;5077334;28;20036;-49
2022/03/08 00:49:20;;;;;;;13.30;7.85;;;;;;;9.94;45.14;102256.81;5076723;28;20112;-48
2022/03/08 00:51:46;;;;;;;14.87;7.90;;;;;;;9.81;45.82;102254.53;5076392;28;20037;-50
2022/03/08 00:54:11;;;;;;;17.17;8.27;;;;;;;9.66;45.81;102250.75;5074973;28;20025;-51
2022/03/08 00:56:37;;;;;;;18.63;8.27;;;;;;;9.66;45.50;102246.25;5076621;28;20043;-51
2022/03/08 00:59:02;;;;;;;14.47;8.00;;;;;;;9.72;45.18;102247.47;5058777;28;20269;-51
2022/03/08 01:01:28;;;;;;;17.90;8.25;;;;;;;9.66;45.07;102246.25;5075253;28;20029;-48
2022/03/08 01:03:54;;;;;;;18.27;7.60;;;;;;;9.68;44.97;102243.41;5076156;28;20037;-50
2022/03/08 01:06:20;;;;;;;14.15;8.43;;;;;;;9.58;44.82;102236.34;5076031;28;20040;-49
2022/03/08 01:08:45;;;;;;;14.23;6.15;;;;;;;9.72;44.34;102234.13;5075535;28;20193;-47
2022/03/08 01:11:11;;;;;;;13.90;7.83;;;;;;;9.58;44.25;102238.19;5075478;28;20033;-48
2022/03/08 01:13:36;;;;;;;15.43;7.80;;;;;;;9.69;44.28;102229.91;5075040;28;20040;-49
2022/03/08 01:16:02;;;;;;;12.83;7.13;;;;;;;9.75;44.19;102236.47;5075806;28;20039;-46
2022/03/08 01:18:28;;;;;;;14.35;7.60;;;;;;;9.80;44.03;102230.66;5075904;28;20029;-53
2022/03/08 01:20:53;;;;;;;14.70;8.13;;;;;;;9.89;43.89;102224.38;5075290;28;20052;-48
2022/03/08 01:23:19;;;;;;;13.50;7.40;;;;;;;9.73;43.58;102228.59;5075780;28;20067;-47
2022/03/08 01:25:44;;;;;;;11.77;6.78;;;;;;;9.64;43.43;102224.19;5082443;28;20032;-49
2022/03/08 01:28:10;;;;;;;12.67;7.10;;;;;;;9.44;43.73;102226.19;5082429;28;20040;-50
2022/03/08 01:30:35;;;;;;;14.83;7.77;;;;;;;9.48;43.87;102219.56;5092593;28;20037;-47
2022/03/08 01:33:01;;;;;;;12.23;5.37;;;;;;;9.45;43.66;102212.69;5062857;28;20067;-51
2022/03/08 01:35:27;;;;;;;11.60;6.88;;;;;;;9.27;43.91;102210.06;5089077;28;20044;-49
2022/03/08 01:37:53;;;;;;;9.53;5.73;;;;;;;9.26;43.95;102208.38;5085761;28;20048;-46
2022/03/08 01:40:19;;;;;;;13.57;6.30;;;;;;;9.25;43.74;102214.72;5081113;28;20032;-47
2022/03/08 01:42:47;;;;;;;13.18;6.97;;;;;;;9.17;44.01;102209.28;5092442;28;20036;-48
2022/03/08 01:45:19;;;;;;;11.25;6.72;;;;;;;9.16;43.88;102210.25;5080866;28;20032;-48
2022/03/08 01:47:45;;;;;;;13.35;6.00;;;;;;;9.11;43.85;102212.56;5086099;28;20033;-46
2022/03/08 01:50:11;;;;;;;10.60;6.20;;;;;;;9.14;43.67;102202.44;5088616;28;20052;-48
2022/03/08 01:52:39;;;;;;;12.80;6.10;;;;;;;9.11;43.73;102199.22;5078161;28;20326;-50
2022/03/08 01:55:07;;;;;;;10.73;6.35;;;;;;;8.92;44.00;102200.19;5091779;28;20036;-51
2022/03/08 01:57:33;;;;;;;21.40;7.35;;;;;;;9.07;43.53;102197.84;5083232;28;20074;-48
2022/03/08 01:59:59;;;;;;;14.50;6.30;;;;;;;9.05;43.25;102184.63;5084389;28;20025;-49
2022/03/08 02:02:24;;;;;;;14.90;6.17;;;;;;;8.96;43.62;102185.56;5090244;28;20048;-48
2022/03/08 02:04:51;;;;;;;9.77;5.63;;;;;;;9.04;43.36;102182.97;5077727;28;20037;-46
2022/03/08 02:07:17;;;;;;;11.18;5.65;;;;;;;9.16;43.06;102183.56;5090006;28;20035;-48
2022/03/08 02:09:42;;;;;;;9.48;5.60;;;;;;;9.01;43.01;102178.78;5084332;28;20059;-49
2022/03/08 02:12:09;;;;;;;14.50;6.13;;;;;;;8.92;43.26;102170.84;5083034;28;20100;-48
2022/03/08 02:14:35;;;;;;;10.63;5.50;;;;;;;8.96;43.13;102165.03;5091354;28;20033;-47
2022/03/08 02:17:00;;;;;;;10.93;5.40;;;;;;;9.07;42.68;102171.16;5078426;28;20024;-46
2022/03/08 02:19:26;;;;;;;10.07;5.77;;;;;;;8.97;42.79;102161.38;5087570;28;20100;-50
2022/03/08 02:21:53;;;;;;;18.20;8.07;;;;;;;8.88;42.87;102165.81;5085284;28;20040;-48
2022/03/08 02:24:19;;;;;;;9.60;5.65;;;;;;;8.99;42.64;102161.25;5081036;28;20047;-49
2022/03/08 02:26:45;;;;;;;10.53;5.47;;;;;;;9.05;42.54;102160.63;5091294;28;20036;-50
2022/03/08 02:29:11;;;;;;;11.13;5.75;;;;;;;9.02;42.26;102159.13;5079339;28;20272;-45
2022/03/08 02:31:37;;;;;;;12.53;5.33;;;;;;;8.87;42.36;102156.13;5086767;28;20044;-50
2022/03/08 02:34:03;;;;;;;8.57;4.70;;;;;;;8.92;42.17;102144.16;5086484;28;20036;-49
2022/03/08 02:36:29;;;;;;;7.55;4.05;;;;;;;8.80;42.11;102149.72;5079731;28;20075;-46
2022/03/08 02:38:54;;;;;;;11.82;4.78;;;;;;;8.94;41.99;102140.34;5091395;28;20041;-44
2022/03/08 02:41:20;;;;;;;11.20;6.67;;;;;;;8.98;41.70;102147.03;5080460;28;20056;-49
2022/03/08 02:43:45;;;;;;;9.33;5.10;;;;;;;9.14;41.40;102151.72;5085713;28;20117;-46
2022/03/08 02:46:11;;;;;;;12.47;4.97;;;;;;;8.82;42.05;102141.56;5086599;28;20052;-49
2022/03/08 02:48:36;;;;;;;9.13;4.97;;;;;;;9.02;41.78;102148.44;5078619;28;20561;-46
2022/03/08 02:51:03;;;;;;;9.50;4.70;;;;;;;8.79;41.90;102141.88;5091170;28;20037;-49
2022/03/08 02:53:29;;;;;;;9.10;4.55;;;;;;;8.79;42.42;102137.38;5081449;28;20056;-46
2022/03/08 02:55:55;;;;;;;12.63;5.25;;;;;;;8.99;41.64;102132.72;5084296;28;20104;-48
2022/03/08 02:58:21;;;;;;;8.65;4.45;;;;;;;8.91;41.58;102140.66;5088715;28;20044;-46
2022/03/08 03:00:47;;;;;;;9.67;3.77;;;;;;;8.96;41.52;102135.69;5077728;28;20033;-48
2022/03/08 03:03:13;;;;;;;8.18;5.03;;;;;;;8.88;41.57;102131.13;5089970;28;20028;-47
2022/03/08 03:05:39;;;;;;;10.98;4.47;;;;;;;8.57;42.04;102125.31;5082507;28;20054;-48
2022/03/08 03:08:06;;;;;;;8.85;5.15;;;;;;;8.82;41.75;102112.22;5082646;28;20124;-49
2022/03/08 03:10:32;;;;;;;11.20;5.22;;;;;;;8.83;41.80;102116.56;5089698;28;20036;-46
2022/03/08 03:12:59;;;;;;;8.27;3.90;;;;;;;8.89;42.14;102115.94;5076714;28;20047;-46
2022/03/08 03:15:27;;;;;;;12.07;4.78;;;;;;;8.68;42.40;102117.09;5088093;28;20109;-50
2022/03/08 03:17:54;;;;;;;7.18;4.75;;;;;;;8.88;41.96;102114.28;5084398;28;20051;-48
2022/03/08 03:20:21;;;;;;;10.27;4.88;;;;;;;8.84;42.22;102116.41;5080544;28;20110;-47
2022/03/08 03:22:47;;;;;;;10.38;4.90;;;;;;;8.87;42.59;102107.25;5090820;28;20095;-48
2022/03/08 03:25:14;;;;;;;11.68;5.45;;;;;;;8.85;42.64;102109.25;5078702;28;20052;-48
2022/03/08 03:27:41;;;;;;;8.55;5.15;;;;;;;8.84;42.60;102107.56;5086069;28;20037;-48
2022/03/08 03:30:10;;;;;;;9.98;5.40;;;;;;;8.64;43.09;102109.53;5085920;28;20096;-46
2022/03/08 03:32:36;;;;;;;10.55;5.43;;;;;;;8.57;43.14;102110.16;5078259;28;20045;-50
2022/03/08 03:35:02;;;;;;;12.02;6.13;;;;;;;8.63;43.03;102102.53;5090775;28;20037;-48
2022/03/08 03:37:28;;;;;;;12.05;5.65;;;;;;;8.67;42.90;102109.25;5080657;28;20040;-50
2022/03/08 03:39:54;;;;;;;10.47;5.20;;;;;;;8.73;42.65;102101.47;5083201;28;20056;-46
2022/03/08 03:42:20;;;;;;;7.57;4.30;;;;;;;8.77;42.78;102107.34;5087481;28;20060;-46
2022/03/08 03:44:45;;;;;;;8.33;5.03;;;;;;;8.82;42.63;102115.72;5077243;28;20052;-47
2022/03/08 03:47:11;;;;;;;13.40;5.73;;;;;;;8.74;42.57;102110.31;5089959;28;20033;-50
2022/03/08 03:49:36;;;;;;;13.57;6.23;;;;;;;8.67;42.51;102115.41;5073935;28;20048;-49
2022/03/08 03:52:03;;;;;;;9.60;4.83;;;;;;;8.71;42.29;102114.13;5084955;28;20044;-49
2022/03/08 03:54:29;;;;;;;9.88;4.95;;;;;;;8.73;42.23;102105.97;5079034;28;20049;-46
2022/03/08 03:56:54;;;;;;;10.47;5.27;;;;;;;8.43;42.51;102113.31;5090481;28;20071;-46
2022/03/08 03:59:20;;;;;;;11.77;6.17;;;;;;;8.53;42.38;102110.59;5079067;28;20104;-49
2022/03/08 04:01:45;;;;;;;10.93;5.67;;;;;;;8.56;42.33;102112.97;5085104;28;20052;-47
2022/03/08 04:04:11;;;;;;;8.87;5.47;;;;;;;8.58;42.30;102111.00;5086009;28;20032;-47
2022/03/08 04:06:36;;;;;;;14.40;5.60;;;;;;;8.50;42.23;102110.88;5078256;28;20032;-51
2022/03/08 04:09:04;;;;;;;11.57;6.43;;;;;;;8.50;41.94;102102.88;5090175;28;20044;-49
2022/03/08 04:11:31;;;;;;;10.50;5.18;;;;;;;8.54;42.33;102099.78;5080061;28;20035;-48
2022/03/08 04:13:57;;;;;;;14.02;5.88;;;;;;;8.29;42.45;102101.31;5083660;28;20044;-50
2022/03/08 04:16:22;;;;;;;11.43;4.60;;;;;;;8.53;42.33;102105.25;5087435;28;20032;-50
2022/03/08 04:18:47;;;;;;;8.23;5.17;;;;;;;8.31;42.34;102099.34;5076977;28;20033;-46
2022/03/08 04:21:13;;;;;;;7.73;4.47;;;;;;;8.25;42.68;102091.94;5089476;28;20045;-45
2022/03/08 04:23:38;;;;;;;11.88;5.10;;;;;;;8.35;42.46;102100.72;5081274;28;20040;-47
2022/03/08 04:26:04;;;;;;;12.30;5.17;;;;;;;8.55;42.36;102105.97;5093753;28;20059;-48
2022/03/08 04:28:30;;;;;;;10.75;5.65;;;;;;;8.51;42.37;102101.91;5080762;28;20047;-49
2022/03/08 04:30:56;;;;;;;10.93;4.83;;;;;;;8.44;42.33;102101.66;5093424;28;20037;-48
2022/03/08 04:33:21;;;;;;;9.70;5.13;;;;;;;8.27;42.38;102101.47;5082417;28;20028;-46
2022/03/08 04:35:47;;;;;;;8.73;5.30;;;;;;;8.41;42.54;102102.78;5088360;28;20045;-46
2022/03/08 04:38:13;;;;;;;10.77;5.97;;;;;;;8.23;42.93;102093.91;5089443;28;20051;-48
2022/03/08 04:40:38;;;;;;;9.13;5.50;;;;;;;8.56;42.11;102096.97;5081089;28;20289;-45
2022/03/08 04:43:04;;;;;;;10.13;4.50;;;;;;;8.32;42.56;102088.53;5093409;28;20035;-46
2022/03/08 04:45:30;;;;;;;11.82;4.80;;;;;;;8.33;42.45;102090.19;5082984;28;20273;-44
2022/03/08 04:47:55;;;;;;;14.43;5.57;;;;;;;8.49;42.25;102087.84;5086941;28;20041;-50
2022/03/08 04:50:20;;;;;;;14.43;5.83;;;;;;;8.44;42.53;102083.81;5089256;28;20040;-49
2022/03/08 04:52:48;;;;;;;9.70;5.00;;;;;;;8.50;42.37;102092.22;5079945;28;20033;-51
2022/03/08 04:55:16;;;;;;;10.00;5.00;;;;;;;8.55;42.03;102097.97;5091770;28;20052;-49
2022/03/08 04:57:42;;;;;;;10.15;5.15;;;;;;;8.39;42.10;102098.56;5083771;28;20040;-46
2022/03/08 05:00:14;;;;;;;10.13;5.22;;;;;;;8.42;42.35;102092.94;5085166;28;20025;-49
2022/03/08 05:02:40;;;;;;;10.40;5.07;;;;;;;8.45;42.43;102098.00;5092326;28;20086;-46
2022/03/08 05:05:08;;;;;;;9.38;5.40;;;;;;;7.98;43.09;102096.28;5079879;28;20060;-48
2022/03/08 05:07:38;;;;;;;12.48;6.70;;;;;;;7.97;43.71;102095.44;5088749;28;20036;-48
2022/03/08 05:10:09;;;;;;;8.98;5.18;;;;;;;8.26;43.06;102088.28;5087374;28;20039;-48
2022/03/08 05:12:36;;;;;;;11.65;5.65;;;;;;;8.01;43.70;102096.84;5081321;28;20033;-48
2022/03/08 05:15:03;;;;;;;14.23;6.53;;;;;;;8.22;43.23;102092.22;5092011;28;20033;-48
2022/03/08 05:17:28;;;;;;;8.70;5.28;;;;;;;8.28;42.80;102087.16;5081962;28;20043;-52
2022/03/08 05:19:54;;;;;;;25.53;6.13;;;;;;;8.38;42.79;102087.09;5086682;28;20057;-47
2022/03/08 05:22:19;;;;;;;11.87;6.27;;;;;;;8.45;42.64;102088.16;5089215;28;20052;-46
2022/03/08 05:24:45;;;;;;;11.30;5.37;;;;;;;8.57;42.41;102086.16;5080026;28;20048;-47
2022/03/08 05:27:10;;;;;;;8.53;5.57;;;;;;;8.46;42.93;102073.84;5092717;28;20060;-45
2022/03/08 05:29:36;;;;;;;9.80;5.40;;;;;;;8.31;43.07;102072.69;5082961;28;20035;-49
2022/03/08 05:32:03;;;;;;;10.48;5.70;;;;;;;8.32;43.05;102072.53;5085099;28;20036;-49
2022/03/08 05:34:29;;;;;;;12.25;5.60;;;;;;;8.36;42.94;102067.75;5090115;28;20077;-47
2022/03/08 05:36:56;;;;;;;11.13;5.57;;;;;;;8.06;43.52;102066.25;5079070;28;20033;-46
2022/03/08 05:39:22;;;;;;;13.97;6.07;;;;;;;8.00;43.59;102060.53;5091309;28;20029;-49
2022/03/08 05:41:48;;;;;;;12.38;5.85;;;;;;;8.07;43.23;102057.25;5084394;28;20261;-48
2022/03/08 05:44:14;;;;;;;12.27;6.00;;;;;;;8.00;43.64;102062.34;5083657;28;20043;-52
2022/03/08 05:46:40;;;;;;;11.52;6.05;;;;;;;7.74;44.28;102068.34;5076943;28;20104;-49
2022/03/08 05:49:06;;;;;;;10.57;5.35;;;;;;;8.28;43.52;102064.97;5078855;28;20040;-47
2022/03/08 05:51:31;;;;;;;14.40;5.83;;;;;;;8.36;43.27;102073.06;5076631;28;20033;-50
2022/03/08 05:53:56;;;;;;;12.53;6.17;;;;;;;8.38;43.29;102068.44;5076653;28;20100;-49
2022/03/08 05:56:22;;;;;;;9.70;5.33;;;;;;;8.43;43.09;102068.00;5075084;28;20044;-47
2022/03/08 05:58:48;;;;;;;12.73;5.80;;;;;;;8.35;43.20;102074.06;5076444;28;20060;-50
2022/03/08 06:01:13;;;;;;;10.83;5.67;;;;;;;8.30;43.42;102073.66;5086438;28;20044;-50
2022/03/08 06:03:38;;;;;;;18.27;5.83;;;;;;;7.97;43.83;102070.63;5082300;28;20048;-47
2022/03/08 06:06:04;;;;;;;11.07;5.97;;;;;;;8.21;43.50;102075.41;5084919;28;20055;-46
2022/03/08 06:08:30;;;;;;;16.98;5.55;;;;;;;8.10;43.88;102075.59;5089317;28;20056;-47
2022/03/08 06:10:56;;;;;;;12.50;6.25;;;;;;;7.90;44.42;102078.34;5078436;28;20037;-48
2022/03/08 06:13:21;;;;;;;13.57;6.00;;;;;;;7.77;44.77;102080.53;5089872;28;20028;-47
2022/03/08 06:15:47;;;;;;;16.67;7.07;;;;;;;7.71;45.10;102080.09;5083363;28;20039;-47
2022/03/08 06:18:13;;;;;;;11.80;5.67;;;;;;;7.78;45.40;102075.03;5083555;28;20033;-47
2022/03/08 06:20:38;;;;;;;10.77;5.70;;;;;;;7.91;45.06;102079.22;5089939;28;20076;-50
2022/03/08 06:23:03;;;;;;;12.93;6.03;;;;;;;7.93;45.53;102083.38;5078522;28;20041;-46
2022/03/08 06:25:29;;;;;;;13.30;6.77;;;;;;;8.04;45.38;102075.22;5089568;28;20021;-48
2022/03/08 06:27:54;;;;;;;14.67;6.10;;;;;;;8.08;45.12;102080.25;5084135;28;20036;-52
2022/03/08 06:30:20;;;;;;;14.77;6.37;;;;;;;8.23;44.60;102085.91;5081926;28;20044;-49
2022/03/08 06:32:45;;;;;;;13.45;6.55;;;;;;;8.14;44.74;102080.50;5074317;28;20043;-46
2022/03/08 06:35:11;;;;;;;14.17;7.13;;;;;;;8.12;44.95;102082.47;5091257;28;20037;-46
2022/03/08 06:37:37;;;;;;;13.25;7.05;;;;;;;8.17;44.64;102082.00;5081177;28;20070;-46
2022/03/08 06:40:04;;;;;;;11.47;6.20;;;;;;;8.20;44.49;102084.41;5084352;28;20092;-51
2022/03/08 06:42:29;;;;;;;11.48;6.88;;;;;;;8.31;44.26;102073.53;5075816;28;20037;-46
2022/03/08 06:44:54;;;;;;;18.43;6.83;;;;;;;8.34;43.81;102072.41;5091252;28;20044;-46
2022/03/08 06:47:20;;;;;;;10.55;5.97;;;;;;;8.32;43.81;102074.38;5078369;28;20479;-50
2022/03/08 06:49:46;;;;;;;12.03;6.60;;;;;;;8.36;43.76;102067.75;5077224;28;20037;-50
2022/03/08 06:52:12;;;;;;;12.00;6.00;;;;;;;8.53;43.15;102062.59;5073710;28;20040;-49
2022/03/08 06:54:39;;;;;;;18.67;7.20;;;;;;;8.50;43.08;102068.22;5074875;28;20040;-49
2022/03/08 06:57:06;;;;;;;15.23;6.28;;;;;;;8.57;42.99;102069.31;5077636;28;20032;-49
2022/03/08 06:59:31;;;;;;;13.55;6.93;;;;;;;8.51;43.05;102083.25;5087807;28;20039;-48
2022/03/08 07:01:56;;;;;;;20.40;6.93;;;;;;;8.60;43.25;102083.16;5075439;28;20025;-49
2022/03/08 07:04:23;;;;;;;11.82;6.00;;;;;;;8.65;43.35;102084.53;5075613;28;20100;-50
2022/03/08 07:06:49;;;;;;;10.43;6.15;;;;;;;8.69;43.33;102084.09;5090926;28;20055;-50
2022/03/08 07:09:15;;;;;;;11.63;5.70;;;;;;;8.91;43.14;102089.97;5061414;28;20029;-49
2022/03/08 07:11:40;;;;;;;12.23;6.10;;;;;;;8.79;43.26;102085.88;5079996;28;20040;-47
2022/03/08 07:14:06;;;;;;;17.57;6.90;;;;;;;8.60;43.18;102087.69;5084781;28;20039;-49
2022/03/08 07:16:33;;;;;;;12.00;6.43;;;;;;;8.61;43.03;102086.69;5079792;28;20063;-47
2022/03/08 07:18:59;;;;;;;9.75;5.78;;;;;;;8.74;42.92;102087.13;5090419;28;20172;-48
2022/03/08 07:21:26;;;;;;;13.65;6.35;;;;;;;8.61;42.64;102092.84;5078874;28;20044;-48
2022/03/08 07:23:52;;;;;;;10.68;5.75;;;;;;;8.71;43.00;102090.09;5085915;28;20083;-48
2022/03/08 07:26:18;;;;;;;17.10;6.55;;;;;;;8.34;43.33;102091.06;5085971;28;20044;-51
2022/03/08 07:28:43;;;;;;;10.30;6.07;;;;;;;8.63;42.75;102095.38;5078218;28;20040;-46
2022/03/08 07:31:08;;;;;;;10.47;5.73;;;;;;;8.81;42.40;102089.22;5083332;28;20041;-46
2022/03/08 07:33:34;;;;;;;12.70;6.20;;;;;;;8.79;42.26;102088.53;5080004;28;20063;-49
2022/03/08 07:36:00;;;;;;;16.40;6.00;;;;;;;9.01;42.17;102082.72;5084310;28;20052;-46
2022/03/08 07:38:26;;;;;;;14.35;6.80;;;;;;;9.37;41.78;102091.63;5080097;28;20086;-48
2022/03/08 07:40:52;;;;;;;11.02;6.47;;;;;;;8.92;42.35;102091.63;5077033;28;20024;-50
2022/03/08 07:43:18;;;;;;;14.50;6.57;;;;;;;8.99;42.48;102089.19;5078858;28;20044;-46
2022/03/08 07:45:43;;;;;;;9.83;6.20;;;;;;;9.35;41.80;102082.94;5086733;28;20039;-48
2022/03/08 07:48:09;;;;;;;11.00;5.90;;;;;;;9.35;41.65;102082.94;5083419;28;20044;-45
2022/03/08 07:50:38;;;;;;;11.33;6.10;;;;;;;9.50;41.44;102086.72;5079485;28;20033;-48
2022/03/08 07:53:04;;;;;;;15.77;7.15;;;;;;;9.16;41.46;102084.81;5076306;28;20037;-52
2022/03/08 07:55:30;;;;;;;;;;;;;;;9.47;40.70;102081.72;5088833;28;20055;-48
2022/03/08 07:57:57;;;;;;;12.87;6.23;;;;;;;9.31;41.19;102088.59;5082578;28;19912;-52
2022/03/08 08:00:24;;;;;;;12.90;6.53;;;;;;;9.64;40.11;102076.44;5081129;28;20040;-50
2022/03/08 08:02:49;;;;;;;;;;;;;;;9.83;40.27;102092.25;5076573;28;20140;-47
2022/03/08 08:05:15;;;;;;;11.10;6.07;;;;;;;9.99;39.98;102079.97;5093553;28;19923;-50
2022/03/08 08:07:40;;;;;;;12.73;6.15;;;;;;;10.15;39.75;102084.53;5083971;28;20034;-44
2022/03/08 08:10:06;;;;;;;14.53;6.80;;;;;;;9.95;39.55;102087.44;5086125;28;20060;-48
2022/03/08 08:12:32;;;;;;;9.47;5.27;;;;;;;10.01;39.38;102084.13;5078713;28;20044;-46
2022/03/08 08:14:58;;;;;;;10.73;5.70;;;;;;;10.32;38.98;102096.09;5093899;28;20040;-48
2022/03/08 08:17:23;;;;;;;14.27;6.27;;;;;;;9.92;39.56;102089.59;5081513;28;20055;-46
2022/03/08 08:19:49;;;;;;;9.80;5.67;;;;;;;10.50;38.82;102090.69;5088965;28;20052;-46
2022/03/08 08:22:14;;;;;;;14.07;5.70;;;;;;;10.30;38.87;102082.91;5077926;28;20086;-48
2022/03/08 08:24:40;;;;;;;13.33;6.23;;;;;;;10.32;39.00;102085.41;5091992;28;20039;-47
2022/03/08 08:27:05;;;;;;;11.67;5.90;;;;;;;10.33;39.00;102089.75;5080416;28;20052;-47
2022/03/08 08:29:30;;;;;;;10.63;6.60;;;;;;;10.12;39.39;102096.38;5091770;28;20059;-49
2022/03/08 08:31:56;;;;;;;10.20;5.80;;;;;;;10.01;39.01;102102.00;5085626;28;20043;-50
2022/03/08 08:34:22;;;;;;;16.37;5.93;;;;;;;10.59;39.22;102096.84;5084886;28;20037;-50
2022/03/08 08:36:47;;;;;;;10.37;5.80;;;;;;;10.12;39.53;102109.72;5092991;28;20061;-47
2022/03/08 08:39:14;;;;;;;16.17;6.03;;;;;;;10.94;38.31;102105.59;5079016;28;20121;-49
2022/03/08 08:41:44;;;;;;;11.15;6.38;;;;;;;11.17;37.73;102110.28;5076895;28;20168;-47
2022/03/08 08:44:11;;;;;;;12.77;6.15;;;;;;;11.55;37.31;102120.44;5075340;28;20056;-46
2022/03/08 08:46:36;;;;;;;11.57;5.63;;;;;;;11.11;37.19;102102.94;5077517;28;20037;-47
2022/03/08 08:49:03;;;;;;;10.73;6.17;;;;;;;11.84;36.51;102098.44;5077748;28;20298;-46
2022/03/08 08:51:30;;;;;;;12.20;6.13;;;;;;;12.46;35.95;102104.06;5076328;28;20049;-50
2022/03/08 08:53:55;;;;;;;10.90;6.18;;;;;;;12.48;35.17;102089.47;5076851;28;20059;-47
2022/03/08 08:56:21;;;;;;;12.27;5.95;;;;;;;12.28;35.03;102098.97;5075834;28;20028;-48
2022/03/08 08:58:47;;;;;;;10.70;6.00;;;;;;;13.13;34.71;102090.97;5073511;28;20036;-47
2022/03/08 09:01:13;;;;;;;7.77;5.27;;;;;;;13.22;34.02;102097.09;5078666;28;20063;-48
2022/03/08 09:03:38;;;;;;;21.75;8.10;;;;;;;13.53;33.16;102083.56;5077049;28;20053;-47
2022/03/08 09:06:04;;;;;;;12.47;6.13;;;;;;;14.08;32.60;102088.63;5077967;28;20037;-48
2022/03/08 09:08:30;;;;;;;9.15;5.35;;;;;;;14.58;32.05;102085.25;5077225;28;20272;-48
2022/03/08 09:10:55;;;;;;;8.73;5.77;;;;;;;14.86;30.95;102077.22;5076909;28;20041;-47
2022/03/08 09:13:22;;;;;;;10.17;6.17;;;;;;;15.54;30.50;102081.28;5077766;28;20040;-51
2022/03/08 09:15:48;;;;;;;12.07;5.60;;;;;;;14.47;31.01;102079.31;5083268;28;20032;-47
2022/03/08 09:18:14;;;;;;;;;;;;;;;15.68;30.03;102057.06;5096221;28;20099;-50
2022/03/08 09:20:41;;;;;;;10.00;5.60;;;;;;;16.03;29.18;102054.34;5081241;28;19939;-49
2022/03/08 09:23:07;;;;;;;9.43;5.57;;;;;;;16.78;28.33;102056.97;5092064;28;20036;-51
2022/03/08 09:25:33;;;;;;;9.13;5.78;;;;;;;15.57;29.11;102075.47;5076717;28;20126;-51
2022/03/08 09:27:59;;;;;;;12.25;6.38;;;;;;;16.02;29.12;102061.59;5084701;28;20036;-48
2022/03/08 09:30:25;;;;;;;9.82;6.35;;;;;;;16.38;28.70;102056.94;5082270;28;20044;-48
2022/03/08 09:32:51;;;;;;;8.57;5.50;;;;;;;16.72;27.63;102056.97;5079852;28;20132;-49
2022/03/08 09:35:17;;;;;;;10.77;6.05;;;;;;;17.18;27.76;102055.34;5075778;28;20060;-48
2022/03/08 09:37:42;;;;;;;8.07;5.33;;;;;;;16.75;27.55;102059.28;5081963;28;20035;-51
2022/03/08 09:40:09;;;;;;;8.77;5.80;;;;;;;17.05;26.83;102059.69;5085307;28;20029;-47
2022/03/08 09:42:34;;;;;;;7.38;5.13;;;;;;;17.81;26.32;102059.34;5089299;28;20274;-50
2022/03/08 09:45:00;;;;;;;9.65;5.13;;;;;;;17.66;26.27;102045.22;5078811;28;20096;-46
2022/03/08 09:47:26;;;;;;;10.85;5.90;;;;;;;17.94;25.70;102034.09;5090878;28;20041;-49
2022/03/08 09:49:51;;;;;;;9.15;5.13;;;;;;;17.34;25.63;102044.09;5082775;28;20127;-52
2022/03/08 09:52:19;;;;;;;8.03;5.40;;;;;;;17.07;26.47;102035.19;5083100;28;20100;-48
2022/03/08 09:54:45;;;;;;;7.97;5.17;;;;;;;17.37;26.17;102053.63;5075018;28;20036;-48
2022/03/08 09:57:13;;;;;;;10.93;4.90;;;;;;;17.54;26.31;102036.94;5091163;28;20269;-48
2022/03/08 09:59:39;;;;;;;8.03;4.83;;;;;;;17.81;24.98;102048.50;5080449;28;20280;-51
2022/03/08 10:02:05;;;;;;;8.45;4.95;;;;;;;17.72;25.99;102028.13;5085079;28;20269;-47
2022/03/08 10:04:30;;;;;;;10.55;5.53;;;;;;;18.53;25.37;102033.94;5074967;28;20091;-52
2022/03/08 10:06:57;;;;;;;7.32;5.10;;;;;;;18.37;24.80;102021.78;5091544;28;20036;-49
2022/03/08 10:09:23;;;;;;;10.15;5.80;;;;;;;18.41;24.43;102030.31;5061929;28;20029;-48
2022/03/08 10:11:51;;;;;;;6.13;4.60;;;;;;;17.31;24.80;102022.88;5087600;28;20088;-49
2022/03/08 10:14:36;;;;;;;6.47;4.60;;;;;;;17.33;24.80;102031.59;5085788;28;20324;-49
2022/03/08 10:17:03;;;;;;;9.47;4.93;;;;;;;17.19;24.49;102046.19;5077626;28;20270;-46
2022/03/08 10:19:29;;;;;;;11.73;4.53;;;;;;;17.19;24.77;102014.59;5090231;28;20265;-52
2022/03/08 10:21:57;;;;;;;9.30;4.60;;;;;;;17.71;25.07;102021.06;5082310;28;20340;-48
2022/03/08 10:24:29;;;;;;;9.57;5.10;;;;;;;17.71;24.62;102015.66;5082784;28;20040;-48
2022/03/08 10:27:00;;;;;;;8.93;5.00;;;;;;;19.35;23.80;102022.19;5090566;28;20281;-53
2022/03/08 10:29:31;;;;;;;7.07;4.53;;;;;;;18.88;23.75;102028.06;5062387;28;20300;-49
2022/03/08 10:32:19;;;;;;;9.53;4.93;;;;;;;18.43;24.12;102012.78;5085605;28;20278;-49
2022/03/08 10:34:46;;;;;;;8.48;5.05;;;;;;;19.03;23.31;102014.19;5089063;28;20296;-48
2022/03/08 10:37:19;;;;;;;10.83;4.83;;;;;;;19.03;23.19;102016.88;5075923;28;20051;-49
2022/03/08 10:39:50;;;;;;;12.73;4.90;;;;;;;18.27;23.36;102011.44;5080744;28;20316;-52
2022/03/08 10:42:20;;;;;;;9.77;5.00;;;;;;;18.45;23.13;102018.81;5083140;28;20357;-47
2022/03/08 10:44:47;;;;;;;8.80;4.90;;;;;;;18.82;23.59;102009.97;5089313;28;20268;-50
2022/03/08 10:47:14;;;;;;;12.10;4.90;;;;;;;19.18;22.86;102007.56;5077216;28;20274;-51
2022/03/08 10:49:55;;;;;;;7.70;4.30;;;;;;;19.08;22.52;101997.25;5088457;28;20047;-53
2022/03/08 10:52:32;;;;;;;7.07;5.23;;;;;;;19.62;22.97;101983.91;5084918;28;20292;-52
2022/03/08 10:55:18;;;;;;;8.23;3.87;;;;;;;19.62;22.28;101993.91;5077653;28;20270;-47
2022/03/08 10:57:54;;;;;;;12.37;4.40;;;;;;;19.81;21.93;101994.69;5066456;28;20280;-48
2022/03/08 11:00:31;;;;;;;9.63;5.20;;;;;;;19.56;22.02;101990.22;5082824;28;20265;-48
2022/03/08 11:03:01;;;;;;;8.30;4.90;;;;;;;19.48;22.24;101990.53;5090021;28;20268;-47
2022/03/08 11:05:30;;;;;;;13.07;4.30;;;;;;;20.30;21.35;101991.94;5061810;28;20273;-52
2022/03/08 11:07:57;;;;;;;8.40;4.40;;;;;;;21.03;20.20;102007.25;5086192;28;20297;-49
2022/03/08 11:10:23;;;;;;;13.70;4.57;;;;;;;20.43;21.31;101982.75;5085267;28;20307;-50
2022/03/08 11:12:49;;;;;;;6.27;4.17;;;;;;;20.71;21.07;101996.72;5078845;28;20277;-53
2022/03/08 11:15:17;;;;;;;6.22;4.20;;;;;;;20.35;21.05;101977.66;5090066;28;20265;-51
2022/03/08 11:17:46;;;;;;;7.00;3.87;;;;;;;20.97;21.36;101973.69;5079494;28;20064;-49
2022/03/08 11:20:14;;;;;;;9.13;4.30;;;;;;;21.28;20.58;101979.81;5082274;28;20341;-52
2022/03/08 11:22:40;;;;;;;5.97;3.93;;;;;;;21.76;20.33;101976.97;5073589;28;20301;-50